sensor_id;sensor_type;location;lat;lon;timestamp;temperature;humidity
12452;DHT22;6291;48.924;12.204;2022-11-02T00:04:05;10.60;99.90
12452;DHT22;6291;48.924;12.204;2022-11-02T00:09:08;10.60;99.90
12452;DHT22;6291;48.924;12.204;2022-11-02T00:14:13;10.40;99.90
12452;DHT22;6291;48.924;12.204;2022-11-02T00:19:16;10.50;99.90
12452;DHT22;6291;48.924;12.204;2022-11-02T00:24:20;10.60;99.90
12452;DHT22;6291;48.924;12.204;2022-11-02T00:29:25;10.60;99.90
12452;DHT22;6291;48.924;12.204;2022-11-02T00:34:34;10.60;99.90
12452;DHT22;6291;48.924;12.204;2022-11-02T00:39:37;10.40;99.90
12452;DHT22;6291;48.924;12.204;2022-11-02T00:44:42;10.40;99.90
12452;DHT22;6291;48.924;12.204;2022-11-02T00:49:46;10.30;99.90
12452;DHT22;6291;48.924;12.204;2022-11-02T00:54:50;10.20;99.90
12452;DHT22;6291;48.924;12.204;2022-11-02T00:59:55;10.10;99.90
12452;DHT22;6291;48.924;12.204;2022-11-02T01:04:58;10.10;99.90
12452;DHT22;6291;48.924;12.204;2022-11-02T01:10:02;10.10;99.90
12452;DHT22;6291;48.924;12.204;2022-11-02T01:15:08;9.90;99.90
12452;DHT22;6291;48.924;12.204;2022-11-02T01:20:12;9.90;99.90
12452;DHT22;6291;48.924;12.204;2022-11-02T01:25:15;10.00;99.90
12452;DHT22;6291;48.924;12.204;2022-11-02T01:30:20;10.10;99.90
12452;DHT22;6291;48.924;12.204;2022-11-02T01:35:24;10.00;99.90
12452;DHT22;6291;48.924;12.204;2022-11-02T01:40:34;10.10;99.90
12452;DHT22;6291;48.924;12.204;2022-11-02T01:45:39;9.90;99.90
12452;DHT22;6291;48.924;12.204;2022-11-02T01:50:42;9.80;99.90
12452;DHT22;6291;48.924;12.204;2022-11-02T01:55:46;9.70;99.90
12452;DHT22;6291;48.924;12.204;2022-11-02T02:00:51;9.60;99.90
12452;DHT22;6291;48.924;12.204;2022-11-02T02:05:58;9.70;99.90
12452;DHT22;6291;48.924;12.204;2022-11-02T02:16:30;9.60;99.90
12452;DHT22;6291;48.924;12.204;2022-11-02T02:21:43;9.70;99.90
12452;DHT22;6291;48.924;12.204;2022-11-02T02:27:06;9.70;99.90
12452;DHT22;6291;48.924;12.204;2022-11-02T02:32:17;9.60;99.90
12452;DHT22;6291;48.924;12.204;2022-11-02T02:37:25;9.60;99.90
12452;DHT22;6291;48.924;12.204;2022-11-02T02:42:33;10.90;99.90
12452;DHT22;6291;48.924;12.204;2022-11-02T02:47:43;9.60;99.90
12452;DHT22;6291;48.924;12.204;2022-11-02T02:52:52;9.60;99.90
12452;DHT22;6291;48.924;12.204;2022-11-02T02:57:57;9.60;99.90
12452;DHT22;6291;48.924;12.204;2022-11-02T03:03:04;9.60;99.90
12452;DHT22;6291;48.924;12.204;2022-11-02T03:08:11;9.60;99.90
12452;DHT22;6291;48.924;12.204;2022-11-02T03:13:34;9.60;99.90
12452;DHT22;6291;48.924;12.204;2022-11-02T03:18:47;9.40;99.90
12452;DHT22;6291;48.924;12.204;2022-11-02T03:23:54;9.40;99.90
12452;DHT22;6291;48.924;12.204;2022-11-02T03:29:04;9.40;99.90
12452;DHT22;6291;48.924;12.204;2022-11-02T03:34:21;9.40;99.90
12452;DHT22;6291;48.924;12.204;2022-11-02T03:39:33;9.30;99.90
12452;DHT22;6291;48.924;12.204;2022-11-02T03:44:38;9.40;99.90
12452;DHT22;6291;48.924;12.204;2022-11-02T03:49:46;9.40;99.90
12452;DHT22;6291;48.924;12.204;2022-11-02T03:55:01;9.40;99.90
12452;DHT22;6291;48.924;12.204;2022-11-02T04:00:10;10.20;99.90
12452;DHT22;6291;48.924;12.204;2022-11-02T04:05:26;9.30;99.90
12452;DHT22;6291;48.924;12.204;2022-11-02T04:10:30;9.20;99.90
12452;DHT22;6291;48.924;12.204;2022-11-02T04:15:33;9.20;99.90
12452;DHT22;6291;48.924;12.204;2022-11-02T04:20:39;9.10;99.90
12452;DHT22;6291;48.924;12.204;2022-11-02T04:25:43;9.00;99.90
12452;DHT22;6291;48.924;12.204;2022-11-02T04:30:49;9.00;99.90
12452;DHT22;6291;48.924;12.204;2022-11-02T04:35:58;8.90;99.90
12452;DHT22;6291;48.924;12.204;2022-11-02T04:41:02;8.80;99.90
12452;DHT22;6291;48.924;12.204;2022-11-02T04:46:26;8.60;99.90
12452;DHT22;6291;48.924;12.204;2022-11-02T04:51:32;8.50;99.90
12452;DHT22;6291;48.924;12.204;2022-11-02T04:56:36;8.50;99.90
12452;DHT22;6291;48.924;12.204;2022-11-02T05:01:40;8.40;99.90
12452;DHT22;6291;48.924;12.204;2022-11-02T05:06:46;8.30;99.90
12452;DHT22;6291;48.924;12.204;2022-11-02T05:11:49;8.30;99.90
12452;DHT22;6291;48.924;12.204;2022-11-02T05:16:53;8.40;99.90
12452;DHT22;6291;48.924;12.204;2022-11-02T05:21:59;8.40;99.90
12452;DHT22;6291;48.924;12.204;2022-11-02T05:27:03;9.10;99.90
12452;DHT22;6291;48.924;12.204;2022-11-02T05:32:10;8.40;99.90
12452;DHT22;6291;48.924;12.204;2022-11-02T05:37:15;8.50;99.90
12452;DHT22;6291;48.924;12.204;2022-11-02T05:42:18;8.40;99.90
12452;DHT22;6291;48.924;12.204;2022-11-02T05:47:22;8.50;99.90
12452;DHT22;6291;48.924;12.204;2022-11-02T05:52:26;8.50;99.90
12452;DHT22;6291;48.924;12.204;2022-11-02T05:57:30;8.50;99.90
12452;DHT22;6291;48.924;12.204;2022-11-02T06:02:33;8.50;99.90
12452;DHT22;6291;48.924;12.204;2022-11-02T06:07:38;8.40;99.90
12452;DHT22;6291;48.924;12.204;2022-11-02T06:12:41;8.30;99.90
12452;DHT22;6291;48.924;12.204;2022-11-02T06:17:45;8.40;99.90
12452;DHT22;6291;48.924;12.204;2022-11-02T06:22:50;8.30;99.90
12452;DHT22;6291;48.924;12.204;2022-11-02T06:27:54;8.30;99.90
12452;DHT22;6291;48.924;12.204;2022-11-02T06:33:02;8.40;99.90
12452;DHT22;6291;48.924;12.204;2022-11-02T06:38:09;8.40;99.90
12452;DHT22;6291;48.924;12.204;2022-11-02T06:43:13;8.50;99.90
12452;DHT22;6291;48.924;12.204;2022-11-02T06:48:18;8.80;99.90
12452;DHT22;6291;48.924;12.204;2022-11-02T06:53:23;8.80;99.90
12452;DHT22;6291;48.924;12.204;2022-11-02T06:58:27;8.90;99.90
12452;DHT22;6291;48.924;12.204;2022-11-02T07:03:31;9.10;99.90
12452;DHT22;6291;48.924;12.204;2022-11-02T07:08:35;8.80;99.90
12452;DHT22;6291;48.924;12.204;2022-11-02T07:13:38;8.70;99.90
12452;DHT22;6291;48.924;12.204;2022-11-02T07:18:42;8.90;99.90
12452;DHT22;6291;48.924;12.204;2022-11-02T07:23:47;8.90;99.90
12452;DHT22;6291;48.924;12.204;2022-11-02T07:28:50;8.90;99.90
12452;DHT22;6291;48.924;12.204;2022-11-02T07:34:00;8.80;99.90
12452;DHT22;6291;48.924;12.204;2022-11-02T07:39:05;9.00;99.90
12452;DHT22;6291;48.924;12.204;2022-11-02T07:44:08;8.90;99.90
12452;DHT22;6291;48.924;12.204;2022-11-02T07:49:27;9.00;99.90
12452;DHT22;6291;48.924;12.204;2022-11-02T07:54:32;9.20;99.90
12452;DHT22;6291;48.924;12.204;2022-11-02T07:59:35;9.20;99.90
12452;DHT22;6291;48.924;12.204;2022-11-02T08:04:39;9.30;99.90
12452;DHT22;6291;48.924;12.204;2022-11-02T08:09:47;9.30;99.90
12452;DHT22;6291;48.924;12.204;2022-11-02T08:14:50;9.40;99.90
12452;DHT22;6291;48.924;12.204;2022-11-02T08:19:54;9.40;99.90
12452;DHT22;6291;48.924;12.204;2022-11-02T08:24:58;9.50;99.90
12452;DHT22;6291;48.924;12.204;2022-11-02T08:30:02;9.80;99.90
12452;DHT22;6291;48.924;12.204;2022-11-02T08:35:07;9.90;99.90
12452;DHT22;6291;48.924;12.204;2022-11-02T08:40:13;10.00;99.90
12452;DHT22;6291;48.924;12.204;2022-11-02T08:45:17;10.30;99.90
12452;DHT22;6291;48.924;12.204;2022-11-02T08:50:21;10.30;99.90
12452;DHT22;6291;48.924;12.204;2022-11-02T08:55:26;10.50;99.90
12452;DHT22;6291;48.924;12.204;2022-11-02T09:00:32;10.60;99.90
12452;DHT22;6291;48.924;12.204;2022-11-02T09:05:39;10.90;99.90
12452;DHT22;6291;48.924;12.204;2022-11-02T09:10:46;11.20;99.90
12452;DHT22;6291;48.924;12.204;2022-11-02T09:15:51;11.20;99.90
12452;DHT22;6291;48.924;12.204;2022-11-02T09:20:55;12.50;99.90
12452;DHT22;6291;48.924;12.204;2022-11-02T09:26:00;12.00;99.90
12452;DHT22;6291;48.924;12.204;2022-11-02T09:31:03;12.10;99.90
12452;DHT22;6291;48.924;12.204;2022-11-02T09:36:12;12.20;99.90
12452;DHT22;6291;48.924;12.204;2022-11-02T09:41:25;12.90;99.90
12452;DHT22;6291;48.924;12.204;2022-11-02T09:46:33;13.50;99.90
12452;DHT22;6291;48.924;12.204;2022-11-02T09:51:43;14.20;99.90
12452;DHT22;6291;48.924;12.204;2022-11-02T09:56:50;16.40;99.90
12452;DHT22;6291;48.924;12.204;2022-11-02T10:02:01;16.80;99.90
12452;DHT22;6291;48.924;12.204;2022-11-02T10:07:08;14.10;99.90
12452;DHT22;6291;48.924;12.204;2022-11-02T10:12:20;14.00;99.90
12452;DHT22;6291;48.924;12.204;2022-11-02T10:17:28;13.80;99.90
12452;DHT22;6291;48.924;12.204;2022-11-02T10:22:36;15.00;99.90
12452;DHT22;6291;48.924;12.204;2022-11-02T10:27:44;14.30;99.90
12452;DHT22;6291;48.924;12.204;2022-11-02T10:32:52;14.20;99.90
12452;DHT22;6291;48.924;12.204;2022-11-02T10:38:09;14.30;99.90
12452;DHT22;6291;48.924;12.204;2022-11-02T10:43:27;14.50;99.90
12452;DHT22;6291;48.924;12.204;2022-11-02T10:48:41;14.60;99.90
12452;DHT22;6291;48.924;12.204;2022-11-02T10:53:50;15.20;99.90
12452;DHT22;6291;48.924;12.204;2022-11-02T10:58:59;15.20;99.90
12452;DHT22;6291;48.924;12.204;2022-11-02T11:04:05;17.20;99.90
12452;DHT22;6291;48.924;12.204;2022-11-02T11:09:16;18.10;99.90
12452;DHT22;6291;48.924;12.204;2022-11-02T11:14:21;16.40;99.90
12452;DHT22;6291;48.924;12.204;2022-11-02T11:19:50;14.80;99.90
12452;DHT22;6291;48.924;12.204;2022-11-02T11:25:18;14.40;99.90
12452;DHT22;6291;48.924;12.204;2022-11-02T11:30:30;14.20;99.90
12452;DHT22;6291;48.924;12.204;2022-11-02T11:35:54;13.80;99.90
12452;DHT22;6291;48.924;12.204;2022-11-02T11:40:58;13.90;99.90
12452;DHT22;6291;48.924;12.204;2022-11-02T11:46:05;14.50;99.90
12452;DHT22;6291;48.924;12.204;2022-11-02T11:51:28;15.00;99.90
12452;DHT22;6291;48.924;12.204;2022-11-02T11:56:33;14.60;99.90
12452;DHT22;6291;48.924;12.204;2022-11-02T12:01:41;14.70;99.90
12452;DHT22;6291;48.924;12.204;2022-11-02T12:06:51;14.80;99.90
12452;DHT22;6291;48.924;12.204;2022-11-02T12:12:04;14.60;99.90
12452;DHT22;6291;48.924;12.204;2022-11-02T12:17:36;14.30;99.90
12452;DHT22;6291;48.924;12.204;2022-11-02T12:22:47;13.80;99.90
12452;DHT22;6291;48.924;12.204;2022-11-02T12:27:59;14.10;99.90
12452;DHT22;6291;48.924;12.204;2022-11-02T12:33:34;14.20;99.90
12452;DHT22;6291;48.924;12.204;2022-11-02T12:39:03;14.10;99.90
12452;DHT22;6291;48.924;12.204;2022-11-02T12:44:21;16.90;99.90
12452;DHT22;6291;48.924;12.204;2022-11-02T12:49:41;13.80;99.90
12452;DHT22;6291;48.924;12.204;2022-11-02T12:54:50;13.70;99.90
12452;DHT22;6291;48.924;12.204;2022-11-02T12:59:59;13.90;99.90
12452;DHT22;6291;48.924;12.204;2022-11-02T13:05:09;13.90;99.90
12452;DHT22;6291;48.924;12.204;2022-11-02T13:10:15;13.80;99.90
12452;DHT22;6291;48.924;12.204;2022-11-02T13:15:22;14.00;99.90
12452;DHT22;6291;48.924;12.204;2022-11-02T13:20:32;13.80;99.90
12452;DHT22;6291;48.924;12.204;2022-11-02T13:25:40;13.70;99.90
12452;DHT22;6291;48.924;12.204;2022-11-02T13:30:44;13.90;99.90
12452;DHT22;6291;48.924;12.204;2022-11-02T13:35:50;14.00;99.90
12452;DHT22;6291;48.924;12.204;2022-11-02T13:41:05;14.00;99.90
12452;DHT22;6291;48.924;12.204;2022-11-02T13:46:28;10.50;99.90
12452;DHT22;6291;48.924;12.204;2022-11-02T13:51:39;14.10;99.90
12452;DHT22;6291;48.924;12.204;2022-11-02T13:56:45;14.20;99.90
12452;DHT22;6291;48.924;12.204;2022-11-02T14:01:50;14.90;99.90
12452;DHT22;6291;48.924;12.204;2022-11-02T14:06:59;15.70;99.90
12452;DHT22;6291;48.924;12.204;2022-11-02T14:12:26;16.00;99.90
12452;DHT22;6291;48.924;12.204;2022-11-02T14:17:55;15.80;99.90
12452;DHT22;6291;48.924;12.204;2022-11-02T14:23:35;15.20;99.90
12452;DHT22;6291;48.924;12.204;2022-11-02T14:28:41;18.50;99.90
12452;DHT22;6291;48.924;12.204;2022-11-02T14:33:59;19.80;94.10
12452;DHT22;6291;48.924;12.204;2022-11-02T14:39:19;18.10;95.30
12452;DHT22;6291;48.924;12.204;2022-11-02T14:44:50;16.50;98.00
12452;DHT22;6291;48.924;12.204;2022-11-02T14:50:05;17.30;96.90
12452;DHT22;6291;48.924;12.204;2022-11-02T14:55:21;17.80;94.20
12452;DHT22;6291;48.924;12.204;2022-11-02T15:00:32;16.60;95.80
12452;DHT22;6291;48.924;12.204;2022-11-02T15:05:38;15.80;98.60
12452;DHT22;6291;48.924;12.204;2022-11-02T15:10:44;15.40;98.50
12452;DHT22;6291;48.924;12.204;2022-11-02T15:16:16;14.60;99.90
12452;DHT22;6291;48.924;12.204;2022-11-02T15:21:29;14.50;99.90
12452;DHT22;6291;48.924;12.204;2022-11-02T15:26:36;14.00;99.90
12452;DHT22;6291;48.924;12.204;2022-11-02T15:31:50;13.60;99.90
12452;DHT22;6291;48.924;12.204;2022-11-02T15:36:57;13.20;99.90
12452;DHT22;6291;48.924;12.204;2022-11-02T15:42:02;13.00;99.90
12452;DHT22;6291;48.924;12.204;2022-11-02T15:47:15;12.80;99.90
12452;DHT22;6291;48.924;12.204;2022-11-02T15:52:26;12.50;99.90
12452;DHT22;6291;48.924;12.204;2022-11-02T15:57:39;12.30;99.90
12452;DHT22;6291;48.924;12.204;2022-11-02T16:02:47;12.20;99.90
12452;DHT22;6291;48.924;12.204;2022-11-02T16:07:53;12.00;99.90
12452;DHT22;6291;48.924;12.204;2022-11-02T16:13:13;11.80;99.90
12452;DHT22;6291;48.924;12.204;2022-11-02T16:18:24;11.70;99.90
12452;DHT22;6291;48.924;12.204;2022-11-02T16:23:31;11.50;99.90
12452;DHT22;6291;48.924;12.204;2022-11-02T16:28:36;11.40;99.90
12452;DHT22;6291;48.924;12.204;2022-11-02T16:33:42;11.30;99.90
12452;DHT22;6291;48.924;12.204;2022-11-02T16:38:54;11.10;99.90
12452;DHT22;6291;48.924;12.204;2022-11-02T16:44:02;11.00;99.90
12452;DHT22;6291;48.924;12.204;2022-11-02T16:49:15;10.90;99.90
12452;DHT22;6291;48.924;12.204;2022-11-02T16:54:37;10.80;99.90
12452;DHT22;6291;48.924;12.204;2022-11-02T16:59:50;10.70;99.90
12452;DHT22;6291;48.924;12.204;2022-11-02T17:04:56;10.60;99.90
12452;DHT22;6291;48.924;12.204;2022-11-02T17:10:07;10.50;99.90
12452;DHT22;6291;48.924;12.204;2022-11-02T17:15:14;10.30;99.90
12452;DHT22;6291;48.924;12.204;2022-11-02T17:20:23;10.30;99.90
12452;DHT22;6291;48.924;12.204;2022-11-02T17:25:30;10.20;99.90
12452;DHT22;6291;48.924;12.204;2022-11-02T17:30:42;10.20;99.90
12452;DHT22;6291;48.924;12.204;2022-11-02T17:35:49;10.10;99.90
12452;DHT22;6291;48.924;12.204;2022-11-02T17:40:54;10.10;99.90
12452;DHT22;6291;48.924;12.204;2022-11-02T17:45:59;9.90;99.90
12452;DHT22;6291;48.924;12.204;2022-11-02T17:51:06;9.80;99.90
12452;DHT22;6291;48.924;12.204;2022-11-02T17:56:11;9.50;99.90
12452;DHT22;6291;48.924;12.204;2022-11-02T18:01:16;9.40;99.90
12452;DHT22;6291;48.924;12.204;2022-11-02T18:06:22;9.20;99.90
12452;DHT22;6291;48.924;12.204;2022-11-02T18:11:25;9.00;99.90
12452;DHT22;6291;48.924;12.204;2022-11-02T18:16:29;8.90;99.90
12452;DHT22;6291;48.924;12.204;2022-11-02T18:21:35;8.80;99.90
12452;DHT22;6291;48.924;12.204;2022-11-02T18:26:40;8.70;99.90
12452;DHT22;6291;48.924;12.204;2022-11-02T18:31:48;8.50;99.90
12452;DHT22;6291;48.924;12.204;2022-11-02T18:36:52;8.60;99.90
12452;DHT22;6291;48.924;12.204;2022-11-02T18:41:56;8.50;99.90
12452;DHT22;6291;48.924;12.204;2022-11-02T18:46:59;8.30;99.90
12452;DHT22;6291;48.924;12.204;2022-11-02T18:52:04;8.30;99.90
12452;DHT22;6291;48.924;12.204;2022-11-02T18:57:07;8.30;99.90
12452;DHT22;6291;48.924;12.204;2022-11-02T19:02:11;8.30;99.90
12452;DHT22;6291;48.924;12.204;2022-11-02T19:07:16;8.30;99.90
12452;DHT22;6291;48.924;12.204;2022-11-02T19:12:36;8.30;99.90
12452;DHT22;6291;48.924;12.204;2022-11-02T19:17:40;8.10;99.90
12452;DHT22;6291;48.924;12.204;2022-11-02T19:22:45;8.00;99.90
12452;DHT22;6291;48.924;12.204;2022-11-02T19:27:55;8.00;99.90
12452;DHT22;6291;48.924;12.204;2022-11-02T19:32:59;8.00;99.90
12452;DHT22;6291;48.924;12.204;2022-11-02T19:38:04;7.90;99.90
12452;DHT22;6291;48.924;12.204;2022-11-02T19:43:07;7.80;99.90
12452;DHT22;6291;48.924;12.204;2022-11-02T19:48:11;7.70;99.90
12452;DHT22;6291;48.924;12.204;2022-11-02T19:53:16;7.60;99.90
12452;DHT22;6291;48.924;12.204;2022-11-02T19:58:20;7.60;99.90
12452;DHT22;6291;48.924;12.204;2022-11-02T20:03:24;7.60;99.90
12452;DHT22;6291;48.924;12.204;2022-11-02T20:08:29;7.50;99.90
12452;DHT22;6291;48.924;12.204;2022-11-02T20:13:34;7.50;99.90
12452;DHT22;6291;48.924;12.204;2022-11-02T20:18:42;7.40;99.90
12452;DHT22;6291;48.924;12.204;2022-11-02T20:23:48;7.20;99.90
12452;DHT22;6291;48.924;12.204;2022-11-02T20:28:53;7.30;99.90
12452;DHT22;6291;48.924;12.204;2022-11-02T20:33:58;7.20;99.90
12452;DHT22;6291;48.924;12.204;2022-11-02T20:39:03;7.10;99.90
12452;DHT22;6291;48.924;12.204;2022-11-02T20:44:11;7.10;99.90
12452;DHT22;6291;48.924;12.204;2022-11-02T20:49:15;7.20;99.90
12452;DHT22;6291;48.924;12.204;2022-11-02T20:54:41;7.30;99.90
12452;DHT22;6291;48.924;12.204;2022-11-02T20:59:44;7.50;99.90
12452;DHT22;6291;48.924;12.204;2022-11-02T21:04:48;7.70;99.90
12452;DHT22;6291;48.924;12.204;2022-11-02T21:09:53;7.70;99.90
12452;DHT22;6291;48.924;12.204;2022-11-02T21:14:58;7.70;99.90
12452;DHT22;6291;48.924;12.204;2022-11-02T21:20:02;7.40;99.90
12452;DHT22;6291;48.924;12.204;2022-11-02T21:25:28;7.30;99.90
12452;DHT22;6291;48.924;12.204;2022-11-02T21:30:32;7.20;99.90
12452;DHT22;6291;48.924;12.204;2022-11-02T21:35:36;7.30;99.90
12452;DHT22;6291;48.924;12.204;2022-11-02T21:40:41;7.20;99.90
12452;DHT22;6291;48.924;12.204;2022-11-02T21:45:51;7.10;99.90
12452;DHT22;6291;48.924;12.204;2022-11-02T21:50:59;7.20;99.90
12452;DHT22;6291;48.924;12.204;2022-11-02T21:56:06;7.20;99.90
12452;DHT22;6291;48.924;12.204;2022-11-02T22:01:12;7.30;99.90
12452;DHT22;6291;48.924;12.204;2022-11-02T22:06:34;7.60;99.90
12452;DHT22;6291;48.924;12.204;2022-11-02T22:11:41;7.10;99.90
12452;DHT22;6291;48.924;12.204;2022-11-02T22:16:47;7.00;99.90
12452;DHT22;6291;48.924;12.204;2022-11-02T22:21:51;7.10;99.90
12452;DHT22;6291;48.924;12.204;2022-11-02T22:26:55;7.10;99.90
12452;DHT22;6291;48.924;12.204;2022-11-02T22:31:59;7.10;99.90
12452;DHT22;6291;48.924;12.204;2022-11-02T22:37:02;7.00;99.90
12452;DHT22;6291;48.924;12.204;2022-11-02T22:42:20;7.10;99.90
12452;DHT22;6291;48.924;12.204;2022-11-02T22:47:24;6.90;99.90
12452;DHT22;6291;48.924;12.204;2022-11-02T22:52:27;6.90;99.90
12452;DHT22;6291;48.924;12.204;2022-11-02T22:57:32;7.00;99.90
12452;DHT22;6291;48.924;12.204;2022-11-02T23:02:35;7.00;99.90
12452;DHT22;6291;48.924;12.204;2022-11-02T23:07:38;7.10;99.90
12452;DHT22;6291;48.924;12.204;2022-11-02T23:12:43;7.10;99.90
12452;DHT22;6291;48.924;12.204;2022-11-02T23:17:47;7.10;99.90
12452;DHT22;6291;48.924;12.204;2022-11-02T23:22:50;7.10;99.90
12452;DHT22;6291;48.924;12.204;2022-11-02T23:28:13;7.00;99.90
12452;DHT22;6291;48.924;12.204;2022-11-02T23:33:34;7.20;99.90
12452;DHT22;6291;48.924;12.204;2022-11-02T23:38:37;7.20;99.90
12452;DHT22;6291;48.924;12.204;2022-11-02T23:44:00;7.30;99.90
12452;DHT22;6291;48.924;12.204;2022-11-02T23:49:15;6.90;99.90
12452;DHT22;6291;48.924;12.204;2022-11-02T23:54:19;6.90;99.90
12452;DHT22;6291;48.924;12.204;2022-11-02T23:59:41;6.80;99.90
